Arcata/Eureka (ACV/KACV)

Map

Destinations

Information

Location
Arcata/Eureka, CA
Local Time
01:14 / 1:14 am
GMT Time
08:14 / 8:14 am
Gates
6
No FAA reported delays
METAR KACV 270753Z AUTO 00000KT 10SM OVC015 11/11 A3007 RMK AO2 SLP187 T01110106 401330100
TAF KACV 270814Z 2708/2806 VRB03KT P6SM SCT007 OVC015 TEMPO 2708/2712 3SM BR OVC005 FM271200 VRB03KT 1SM BR OVC002 FM271700 VRB03KT 6SM BR OVC015 FM271900 31008KT P6SM OVC025 FM280200 VRB04KT 6SM BR OVC007